createdAt,value
2023-02-25T00:01:36.765Z,98594.34
2023-02-25T00:04:04.028Z,98602.03
2023-02-25T00:06:30.950Z,98514.47
2023-02-25T00:08:57.961Z,98564.78
2023-02-25T00:11:28.393Z,98571.59
2023-02-25T00:14:00.449Z,98517.88
2023-02-25T00:16:30.322Z,98496.94
2023-02-25T00:19:00.666Z,98520.41
2023-02-25T00:21:34.543Z,98512.63
2023-02-25T00:24:16.441Z,98611.59
2023-02-25T00:26:44.276Z,98595.19
2023-02-25T00:29:13.852Z,98563.94
2023-02-25T00:31:43.372Z,98502.38
2023-02-25T00:34:11.234Z,98592.72
2023-02-25T00:36:38.410Z,98572.78
2023-02-25T00:39:06.035Z,98580.72
2023-02-25T00:41:35.146Z,98388.22
2023-02-25T00:44:02.834Z,98574.78
2023-02-25T00:46:31.250Z,98454.28
2023-02-25T00:49:00.728Z,98469.84
2023-02-25T00:51:28.904Z,98552.38
2023-02-25T00:53:56.634Z,98547.22
2023-02-25T00:56:24.871Z,98542.88
2023-02-25T00:58:54.523Z,98512.56
2023-02-25T01:01:26.403Z,98533.41
2023-02-25T01:03:57.114Z,98517.88
2023-02-25T01:06:30.746Z,98509.25
2023-02-25T01:08:58.632Z,98469.44
2023-02-25T01:11:30.599Z,98352.50
2023-02-25T01:13:59.566Z,98453.97
2023-02-25T01:16:28.850Z,98316.16
2023-02-25T01:19:01.257Z,98305.78
2023-02-25T01:21:30.720Z,98494.66
2023-02-25T01:24:01.203Z,98481.69
2023-02-25T01:26:38.799Z,98479.09
2023-02-25T01:29:13.081Z,98377.69
2023-02-25T01:31:40.686Z,98415.84
2023-02-25T01:34:10.640Z,98446.97
2023-02-25T01:36:40.017Z,98470.34
2023-02-25T01:39:08.687Z,98471.16
2023-02-25T01:41:39.297Z,98355.00
2023-02-25T01:44:17.237Z,98407.97
2023-02-25T01:46:51.587Z,98434.88
2023-02-25T01:49:34.860Z,98258.03
2023-02-25T01:52:11.457Z,98338.56
2023-02-25T01:54:47.597Z,98300.47
2023-02-25T01:57:18.664Z,98341.06
2023-02-25T01:59:49.601Z,98332.47
2023-02-25T02:02:23.063Z,98445.84
2023-02-25T02:04:52.373Z,98351.41
2023-02-25T02:07:25.603Z,98371.41
2023-02-25T02:09:58.694Z,98300.25
2023-02-25T02:12:41.116Z,98434.44
2023-02-25T02:15:14.108Z,98436.13
2023-02-25T02:17:48.505Z,98397.13
2023-02-25T02:20:25.467Z,98318.31
2023-02-25T02:23:15.160Z,98421.53
2023-02-25T02:26:15.949Z,98399.03
2023-02-25T02:29:00.619Z,98348.84
2023-02-25T02:31:43.276Z,98383.44
2023-02-25T02:34:33.301Z,98378.25
2023-02-25T02:37:38.674Z,98381.63
2023-02-25T02:40:16.421Z,98391.91
2023-02-25T02:43:06.649Z,98325.94
2023-02-25T02:46:04.519Z,98384.06
2023-02-25T02:48:38.989Z,98391.81
2023-02-25T02:51:17.459Z,98384.91
2023-02-25T02:54:05.989Z,98382.28
2023-02-25T02:56:39.545Z,98319.91
2023-02-25T02:59:15.164Z,98386.72
2023-02-25T03:01:46.857Z,98240.41
2023-02-25T03:04:18.616Z,98011.44
2023-02-25T03:06:49.123Z,98247.22
2023-02-25T03:09:24.008Z,98399.78
2023-02-25T03:11:51.284Z,98119.13
2023-02-25T03:14:18.892Z,98319.94
2023-02-25T03:16:59.649Z,98408.31
2023-02-25T03:19:37.475Z,98274.09
2023-02-25T03:22:17.613Z,98292.97
2023-02-25T03:25:18.547Z,98401.41
2023-02-25T03:27:52.530Z,98409.16
2023-02-25T03:30:38.501Z,98409.16
2023-02-25T03:33:23.491Z,98405.72
2023-02-25T03:35:57.382Z,98390.88
2023-02-25T03:38:29.244Z,98385.75
2023-02-25T03:41:01.186Z,98405.78
2023-02-25T03:43:34.014Z,98337.34
2023-02-25T03:46:02.316Z,98268.91
2023-02-25T03:48:37.488Z,98326.16
2023-02-25T03:51:09.170Z,98316.72
2023-02-25T03:53:43.051Z,98342.63
2023-02-25T03:56:23.549Z,98417.28
2023-02-25T03:58:51.657Z,98390.53
2023-02-25T04:01:29.010Z,98413.19
2023-02-25T04:03:55.845Z,98351.84
2023-02-25T04:06:27.981Z,98331.13
2023-02-25T04:09:00.517Z,98327.75
2023-02-25T04:11:28.216Z,98289.78
2023-02-25T04:14:00.188Z,98346.13
2023-02-25T04:16:32.245Z,98208.50
2023-02-25T04:18:59.968Z,98326.13
2023-02-25T04:21:32.411Z,98304.44
2023-02-25T04:24:02.066Z,98413.56
2023-02-25T04:26:28.914Z,98365.06
2023-02-25T04:28:55.830Z,98320.97
2023-02-25T04:31:27.697Z,98335.72
2023-02-25T04:33:57.170Z,98390.28
2023-02-25T04:36:34.268Z,98428.34
2023-02-25T04:39:10.337Z,98424.03
2023-02-25T04:41:40.831Z,98270.75
2023-02-25T04:44:18.248Z,98358.91
2023-02-25T04:46:54.342Z,98306.09
2023-02-25T04:49:24.206Z,98220.25
2023-02-25T04:51:58.190Z,98284.34
2023-02-25T04:54:28.535Z,98302.31
2023-02-25T04:57:01.399Z,98294.69
2023-02-25T04:59:29.535Z,98304.19
2023-02-25T05:02:03.560Z,98333.56
2023-02-25T05:04:42.185Z,98400.09
2023-02-25T05:07:13.149Z,98284.66
2023-02-25T05:09:49.056Z,98495.97
2023-02-25T05:12:19.537Z,98332.28
2023-02-25T05:14:50.001Z,98281.81
2023-02-25T05:17:19.661Z,98436.16
2023-02-25T05:19:47.292Z,98453.25
2023-02-25T05:22:28.934Z,98248.50
2023-02-25T05:24:58.264Z,98497.25
2023-02-25T05:27:41.232Z,98478.81
2023-02-25T05:30:17.510Z,98363.19
2023-02-25T05:32:47.691Z,98530.81
2023-02-25T05:35:19.937Z,98433.50
2023-02-25T05:37:52.447Z,98536.66
2023-02-25T05:40:25.680Z,98450.59
2023-02-25T05:42:58.898Z,98367.28
2023-02-25T05:45:28.987Z,98494.81
2023-02-25T05:48:00.369Z,98020.66
2023-02-25T05:50:29.860Z,98508.66
2023-02-25T05:53:03.337Z,98367.78
2023-02-25T05:55:38.542Z,98114.53
2023-02-25T05:58:10.360Z,98437.84
2023-02-25T06:00:43.446Z,98375.94
2023-02-25T06:03:15.877Z,98538.34
2023-02-25T06:05:48.004Z,98531.97
2023-02-25T06:08:22.871Z,98389.59
2023-02-25T06:10:52.208Z,98358.03
2023-02-25T06:13:19.343Z,98481.22
2023-02-25T06:15:50.172Z,98577.56
2023-02-25T06:18:17.612Z,98579.19
2023-02-25T06:20:44.568Z,98598.81
2023-02-25T06:23:16.339Z,98503.75
2023-02-25T06:25:51.269Z,98524.50
2023-02-25T06:28:18.902Z,98509.38
2023-02-25T06:30:53.495Z,98504.84
2023-02-25T06:33:24.205Z,98359.66
2023-02-25T06:35:56.886Z,98428.47
2023-02-25T06:38:37.525Z,98591.25
2023-02-25T06:41:09.208Z,98585.19
2023-02-25T06:43:42.376Z,98599.84
2023-02-25T06:46:13.876Z,98550.28
2023-02-25T06:48:42.913Z,98587.47
2023-02-25T06:51:15.236Z,98477.88
2023-02-25T06:53:45.537Z,98626.47
2023-02-25T06:56:14.116Z,98591.41
2023-02-25T06:58:44.254Z,98534.88
2023-02-25T07:01:13.769Z,98648.94
2023-02-25T07:03:41.671Z,98667.94
2023-02-25T07:06:10.551Z,98530.44
2023-02-25T07:08:42.540Z,98581.03
2023-02-25T07:11:29.336Z,98662.28
2023-02-25T07:14:01.931Z,98572.13
2023-02-25T07:16:30.139Z,98526.81
2023-02-25T07:18:58.463Z,98539.09
2023-02-25T07:21:29.546Z,98685.75
2023-02-25T07:24:01.293Z,98579.22
2023-02-25T07:26:34.965Z,98653.09
2023-02-25T07:29:07.018Z,98618.63
2023-02-25T07:31:37.925Z,98631.00
2023-02-25T07:34:04.801Z,98572.94
2023-02-25T07:36:33.541Z,98499.53
2023-02-25T07:39:06.799Z,98655.78
2023-02-25T07:41:36.873Z,98663.53
2023-02-25T07:44:06.208Z,98649.63
2023-02-25T07:46:35.653Z,98656.81
2023-02-25T07:49:03.080Z,98664.84
2023-02-25T07:51:38.828Z,98529.06
2023-02-25T07:54:05.982Z,98562.81
2023-02-25T07:56:37.036Z,98614.44
2023-02-25T07:59:09.927Z,98507.69
2023-02-25T08:01:39.810Z,98609.50
2023-02-25T08:04:09.296Z,98603.34
2023-02-25T08:06:41.609Z,98680.03
2023-02-25T08:09:12.463Z,98626.69
2023-02-25T08:11:49.157Z,98683.97
2023-02-25T08:14:16.318Z,98655.69
2023-02-25T08:16:45.828Z,98595.03
2023-02-25T08:19:15.270Z,98687.09
2023-02-25T08:21:47.974Z,98677.44
2023-02-25T08:24:21.062Z,98607.50
2023-02-25T08:26:48.300Z,98666.91
2023-02-25T08:29:21.038Z,98481.78
2023-02-25T08:31:50.436Z,98544.38
2023-02-25T08:34:22.110Z,98566.78
2023-02-25T08:36:51.111Z,98610.38
2023-02-25T08:39:20.866Z,98635.59
2023-02-25T08:41:49.990Z,98577.44
2023-02-25T08:44:20.686Z,98636.16
2023-02-25T08:46:52.878Z,98696.06
2023-02-25T08:49:24.576Z,98586.59
2023-02-25T08:51:53.912Z,98703.88
2023-02-25T08:54:20.760Z,98694.50
2023-02-25T08:56:52.814Z,98688.53
2023-02-25T08:59:19.635Z,98664.78
2023-02-25T09:01:50.404Z,98583.13
2023-02-25T09:04:20.217Z,98536.66
2023-02-25T09:06:47.741Z,98576.53
2023-02-25T09:09:18.396Z,98643.38
2023-02-25T09:11:46.263Z,98702.78
2023-02-25T09:14:14.152Z,98673.34
2023-02-25T09:16:41.134Z,98586.47
2023-02-25T09:19:18.513Z,98563.13
2023-02-25T09:21:48.287Z,98713.06
2023-02-25T09:24:26.470Z,98675.28
2023-02-25T09:26:55.574Z,98666.69
2023-02-25T09:29:22.247Z,98624.97
2023-02-25T09:31:54.222Z,98599.78
2023-02-25T09:34:26.338Z,98731.06
2023-02-25T09:36:57.496Z,98753.69
2023-02-25T09:39:31.938Z,98640.81
2023-02-25T09:42:51.100Z,98484.63
2023-02-25T09:45:28.277Z,98664.63
2023-02-25T09:48:01.415Z,98614.56
2023-02-25T09:50:40.742Z,98591.66
2023-02-25T09:53:28.970Z,98612.66
2023-02-25T09:55:59.247Z,98632.69
2023-02-25T09:58:45.787Z,98634.63
2023-02-25T10:01:34.549Z,98610.84
2023-02-25T10:04:23.174Z,98712.47
2023-02-25T10:06:51.803Z,98631.78
2023-02-25T10:09:39.787Z,98728.13
2023-02-25T10:12:22.192Z,98667.78
2023-02-25T10:15:26.760Z,98724.56
2023-02-25T10:18:22.051Z,98691.50
2023-02-25T10:21:26.105Z,98702.88
2023-02-25T10:24:28.344Z,98602.13
2023-02-25T10:27:00.889Z,98614.50
2023-02-25T10:29:42.449Z,98644.84
2023-02-25T10:32:17.068Z,98733.13
2023-02-25T10:34:44.405Z,98729.66
2023-02-25T10:37:21.029Z,98613.41
2023-02-25T10:39:50.836Z,98740.88
2023-02-25T10:42:21.690Z,98619.97
2023-02-25T10:44:48.807Z,98702.63
2023-02-25T10:47:38.146Z,98722.13
2023-02-25T10:50:14.686Z,98735.38
2023-02-25T10:53:13.411Z,98727.28
2023-02-25T10:55:54.706Z,98636.69
2023-02-25T10:58:38.318Z,98741.19
2023-02-25T11:01:14.983Z,98667.50
2023-02-25T11:03:54.383Z,98672.69
2023-02-25T11:06:33.230Z,98752.13
2023-02-25T11:09:02.319Z,98696.28
2023-02-25T11:11:33.264Z,98642.66
2023-02-25T11:14:02.320Z,98734.34
2023-02-25T11:16:37.201Z,98745.78
2023-02-25T11:19:27.482Z,98716.50
2023-02-25T11:22:09.287Z,98657.88
2023-02-25T11:24:38.543Z,98724.13
2023-02-25T11:27:20.525Z,98637.44
2023-02-25T11:29:50.599Z,98646.66
2023-02-25T11:32:28.850Z,98546.16
2023-02-25T11:35:08.762Z,98655.69
2023-02-25T11:37:36.384Z,98604.69
2023-02-25T11:40:28.092Z,98546.09
2023-02-25T11:43:05.118Z,98602.91
2023-02-25T11:45:37.153Z,98596.63
2023-02-25T11:48:05.932Z,98640.13
2023-02-25T11:50:42.760Z,98563.16
2023-02-25T11:53:28.096Z,98684.44
2023-02-25T11:56:08.232Z,98682.22
2023-02-25T11:59:15.489Z,98708.97
2023-02-25T12:01:57.413Z,98660.81
2023-02-25T12:04:52.299Z,98654.38
2023-02-25T12:07:55.547Z,98613.34
2023-02-25T12:11:08.788Z,98673.69
2023-02-25T12:13:44.238Z,98673.06
2023-02-25T12:16:38.703Z,98666.38
2023-02-25T12:19:24.152Z,98639.53
2023-02-25T12:22:14.927Z,98631.31
2023-02-25T12:24:43.340Z,98594.09
2023-02-25T12:27:37.338Z,98495.38
2023-02-25T12:30:13.502Z,98632.19
2023-02-25T12:32:58.796Z,98586.94
2023-02-25T12:35:40.738Z,98638.06
2023-02-25T12:38:19.682Z,98647.75
2023-02-25T12:41:18.149Z,98658.19
2023-02-25T12:43:52.840Z,98498.00
2023-02-25T12:46:32.175Z,98660.84
2023-02-25T12:49:17.481Z,98648.72
2023-02-25T12:52:10.404Z,98643.50
2023-02-25T12:54:49.846Z,98513.56
2023-02-25T12:57:39.703Z,98655.38
2023-02-25T13:00:47.648Z,98644.25
2023-02-25T13:03:59.007Z,98650.13
2023-02-25T13:06:35.318Z,98561.84
2023-02-25T13:09:33.243Z,98496.09
2023-02-25T13:12:20.055Z,98515.06
2023-02-25T13:15:07.547Z,98648.34
2023-02-25T13:17:53.549Z,98646.97
2023-02-25T13:20:29.469Z,98651.41
2023-02-25T13:23:16.099Z,98664.31
2023-02-25T13:26:13.181Z,98667.19
2023-02-25T13:29:03.331Z,98664.16
2023-02-25T13:31:47.613Z,98572.47
2023-02-25T13:34:45.083Z,98586.75
2023-02-25T13:37:31.605Z,98663.63
2023-02-25T13:40:22.490Z,98671.91
2023-02-25T13:43:17.006Z,98642.47
2023-02-25T13:45:47.122Z,98691.41
2023-02-25T13:48:22.067Z,98699.53
2023-02-25T13:51:13.869Z,98696.38
2023-02-25T13:53:58.195Z,98671.81
2023-02-25T13:56:29.720Z,98687.75
2023-02-25T13:59:35.764Z,98653.09
2023-02-25T14:02:47.050Z,98636.50
2023-02-25T14:05:37.323Z,98653.59
2023-02-25T14:08:22.353Z,98673.81
2023-02-25T14:11:26.946Z,98635.69
2023-02-25T14:14:19.817Z,98613.00
2023-02-25T14:16:58.100Z,98693.72
2023-02-25T14:19:47.745Z,98677.13
2023-02-25T14:22:24.881Z,98686.19
2023-02-25T14:25:16.593Z,98696.00
2023-02-25T14:28:00.530Z,98687.78
2023-02-25T14:30:39.825Z,98651.66
2023-02-25T14:33:26.283Z,98688.13
2023-02-25T14:36:23.240Z,98663.09
2023-02-25T14:39:19.701Z,98682.94
2023-02-25T14:42:05.348Z,98681.97
2023-02-25T14:44:41.213Z,98710.56
2023-02-25T14:47:16.847Z,98719.25
2023-02-25T14:49:53.380Z,98631.00
2023-02-25T14:52:47.975Z,98743.88
2023-02-25T14:55:50.184Z,98743.53
2023-02-25T14:58:22.910Z,98746.72
2023-02-25T15:00:52.465Z,98771.16
2023-02-25T15:03:43.358Z,98768.97
2023-02-25T15:06:18.234Z,98766.53
2023-02-25T15:09:18.127Z,98755.34
2023-02-25T15:12:36.151Z,98761.81
2023-02-25T15:15:27.156Z,98755.56
2023-02-25T15:18:05.954Z,98765.03
2023-02-25T15:20:33.741Z,98770.19
2023-02-25T15:23:03.826Z,98760.44
2023-02-25T15:25:38.920Z,98768.16
2023-02-25T15:28:30.961Z,98767.19
2023-02-25T15:31:03.691Z,98775.78
2023-02-25T15:33:43.104Z,98781.72
2023-02-25T15:36:16.175Z,98785.78
2023-02-25T15:38:50.503Z,98771.63
2023-02-25T15:41:29.561Z,98775.81
2023-02-25T15:44:00.812Z,98780.06
2023-02-25T15:46:33.903Z,98786.16
2023-02-25T15:49:35.294Z,98783.75
2023-02-25T15:52:06.517Z,98781.63
2023-02-25T15:54:38.497Z,98793.63
2023-02-25T15:57:11.781Z,98806.00
2023-02-25T15:59:53.012Z,98797.94
2023-02-25T16:02:29.050Z,98795.13
2023-02-25T16:05:13.691Z,98800.94
2023-02-25T16:07:43.007Z,98817.31
2023-02-25T16:10:18.648Z,98827.06
2023-02-25T16:12:49.247Z,98784.94
2023-02-25T16:15:35.473Z,98731.66
2023-02-25T16:18:13.354Z,98737.00
2023-02-25T16:20:47.361Z,98695.25
2023-02-25T16:23:18.925Z,98721.28
2023-02-25T16:25:54.671Z,98731.34
2023-02-25T16:28:44.305Z,98808.66
2023-02-25T16:31:42.187Z,98808.66
2023-02-25T16:34:22.900Z,98661.75
2023-02-25T16:36:52.714Z,98811.13
2023-02-25T16:39:25.852Z,98818.63
2023-02-25T16:41:57.503Z,98797.38
2023-02-25T16:44:38.564Z,98756.88
2023-02-25T16:47:18.136Z,98843.50
2023-02-25T16:49:47.478Z,98828.75
2023-02-25T16:52:25.755Z,98733.28
2023-02-25T16:54:59.708Z,98752.50
2023-02-25T16:57:28.905Z,98858.34
2023-02-25T17:00:20.522Z,98764.03
2023-02-25T17:02:54.053Z,98836.03
2023-02-25T17:05:23.926Z,98866.56
2023-02-25T17:08:01.119Z,98860.47
2023-02-25T17:10:31.669Z,98775.75
2023-02-25T17:13:00.508Z,98891.38
2023-02-25T17:15:30.442Z,98795.50
2023-02-25T17:18:24.621Z,98743.19
2023-02-25T17:20:55.176Z,98849.06
2023-02-25T17:23:21.962Z,98774.81
2023-02-25T17:25:52.717Z,98810.97
2023-02-25T17:28:28.520Z,98772.41
2023-02-25T17:31:06.845Z,98959.47
2023-02-25T17:33:38.624Z,98768.25
2023-02-25T17:36:08.679Z,98951.81
2023-02-25T17:38:38.919Z,98841.81
2023-02-25T17:41:14.944Z,98909.19
2023-02-25T17:43:41.688Z,98833.38
2023-02-25T17:46:24.531Z,98907.56
2023-02-25T17:49:01.016Z,98885.34
2023-02-25T17:51:36.652Z,98836.47
2023-02-25T17:54:07.532Z,98860.31
2023-02-25T17:56:35.616Z,98855.63
2023-02-25T17:59:31.191Z,98843.84
2023-02-25T18:02:00.182Z,98907.53
2023-02-25T19:09:59.454Z,98955.22
2023-02-25T19:12:29.101Z,98996.13
2023-02-25T19:15:03.083Z,98930.59
2023-02-25T19:17:32.559Z,98857.66
2023-02-25T19:19:59.209Z,99032.28
2023-02-25T19:22:26.192Z,98953.59
2023-02-25T19:24:52.946Z,99038.44
2023-02-25T19:27:31.686Z,99041.50
2023-02-25T19:29:59.371Z,98893.13
2023-02-25T19:32:27.025Z,98856.38
2023-02-25T19:34:56.057Z,99023.31
2023-02-25T19:37:22.864Z,98865.53
2023-02-25T19:39:51.928Z,98952.34
2023-02-25T19:42:21.638Z,98902.00
2023-02-25T19:44:50.728Z,98928.06
2023-02-25T19:47:17.825Z,98906.63
2023-02-25T19:49:46.793Z,98890.91
2023-02-25T19:52:19.060Z,98922.53
2023-02-25T19:54:48.201Z,98994.34
2023-02-25T19:57:15.109Z,98848.75
2023-02-25T19:59:42.354Z,98958.69
2023-02-25T20:02:13.376Z,98842.75
2023-02-25T20:04:40.623Z,98881.97
2023-02-25T20:07:07.701Z,98873.16
2023-02-25T20:09:34.817Z,98921.72
2023-02-25T20:12:06.066Z,99026.53
2023-02-25T20:14:33.174Z,98976.75
2023-02-25T20:17:02.282Z,98869.53
2023-02-25T20:19:35.454Z,99005.66
2023-02-25T20:22:03.821Z,99014.38
2023-02-25T20:24:30.925Z,98933.44
2023-02-25T20:26:58.210Z,99034.72
2023-02-25T20:29:25.209Z,99035.56
2023-02-25T20:31:54.343Z,98985.44
2023-02-25T20:34:22.148Z,98909.00
2023-02-25T20:36:59.525Z,99025.25
2023-02-25T20:39:38.454Z,99028.03
2023-02-25T20:42:12.974Z,99019.78
2023-02-25T20:44:45.220Z,98906.25
2023-02-25T20:47:21.227Z,98961.41
2023-02-25T20:49:48.680Z,99035.56
2023-02-25T20:52:20.013Z,99042.34
2023-02-25T20:54:50.014Z,98985.31
2023-02-25T20:57:19.814Z,98840.06
2023-02-25T20:59:48.274Z,98978.28
2023-02-25T21:02:15.922Z,98881.03
2023-02-25T21:04:45.816Z,98956.31
2023-02-25T21:07:13.778Z,99010.13
2023-02-25T21:09:43.966Z,98928.03
2023-02-25T21:12:10.831Z,99039.31
2023-02-25T21:14:42.368Z,98968.09
2023-02-25T21:17:14.040Z,99006.16
2023-02-25T21:19:46.031Z,98984.75
2023-02-25T21:22:15.350Z,98976.75
2023-02-25T21:24:44.336Z,99047.56
2023-02-25T21:27:12.075Z,98938.94
2023-02-25T21:29:40.996Z,99031.66
2023-02-25T21:32:10.011Z,98931.34
2023-02-25T21:34:39.958Z,99058.66
2023-02-25T21:37:07.981Z,98989.19
2023-02-25T21:39:34.780Z,99047.00
2023-02-25T21:42:01.652Z,98839.94
2023-02-25T21:44:33.140Z,98956.53
2023-02-25T21:46:59.960Z,99061.03
2023-02-25T21:49:29.872Z,98936.09
2023-02-25T21:51:58.298Z,98872.31
2023-02-25T21:54:25.234Z,98987.50
2023-02-25T21:56:51.955Z,99002.28
2023-02-25T21:59:19.213Z,99103.66
2023-02-25T22:01:46.460Z,98996.78
2023-02-25T22:04:13.452Z,99103.84
2023-02-25T22:06:43.000Z,99021.19
2023-02-25T22:09:09.715Z,99087.72
2023-02-25T22:11:40.591Z,99088.59
2023-02-25T22:14:08.605Z,99078.06
2023-02-25T22:16:36.463Z,99089.59
2023-02-25T22:19:03.478Z,99105.50
2023-02-25T22:21:34.375Z,99088.50
2023-02-25T22:24:02.941Z,99057.38
2023-02-25T22:26:34.697Z,99050.19
2023-02-25T22:29:06.760Z,98959.66
2023-02-25T22:31:35.100Z,99063.00
2023-02-25T22:34:02.603Z,98978.53
2023-02-25T22:36:29.476Z,98920.06
2023-02-25T22:38:56.611Z,98923.00
2023-02-25T22:41:28.912Z,98993.94
2023-02-25T22:43:58.786Z,99102.84
2023-02-25T22:46:28.472Z,99108.16
2023-02-25T22:48:55.837Z,99104.25
2023-02-25T22:51:32.861Z,98972.69
2023-02-25T22:54:02.474Z,99002.22
2023-02-25T22:56:29.370Z,98949.44
2023-02-25T22:58:59.082Z,99060.63
2023-02-25T23:01:26.295Z,98979.50
2023-02-25T23:03:54.884Z,99076.22
2023-02-25T23:06:34.265Z,99075.44
2023-02-25T23:09:09.913Z,98967.91
2023-02-25T23:11:39.564Z,98997.38
2023-02-25T23:14:12.117Z,99046.78
2023-02-25T23:16:41.500Z,99054.66
2023-02-25T23:19:09.752Z,99074.81
2023-02-25T23:21:38.709Z,99027.91
2023-02-25T23:24:07.734Z,98996.75
2023-02-25T23:26:39.233Z,99048.94
2023-02-25T23:29:13.613Z,98910.91
2023-02-25T23:31:47.344Z,99090.09
2023-02-25T23:34:18.075Z,99048.94
2023-02-25T23:36:45.227Z,98999.06
2023-02-25T23:39:16.250Z,98981.03
2023-02-25T23:41:45.572Z,98787.97
2023-02-25T23:44:13.394Z,99034.72
2023-02-25T23:46:43.180Z,99064.78
2023-02-25T23:49:14.694Z,99059.28
2023-02-25T23:51:46.797Z,99090.84
2023-02-25T23:54:16.338Z,99051.91
2023-02-25T23:56:43.080Z,99108.44
2023-02-25T23:59:15.498Z,99129.91
